createdAt,value
2023-01-01T00:00:25.402Z,17.58
2023-01-01T00:02:53.067Z,17.20
2023-01-01T00:05:20.677Z,17.33
2023-01-01T00:07:48.115Z,16.97
2023-01-01T00:10:17.242Z,17.09
2023-01-01T00:12:45.289Z,17.22
2023-01-01T00:15:12.715Z,17.07
2023-01-01T00:17:40.852Z,17.24
2023-01-01T00:20:09.620Z,17.18
2023-01-01T00:22:55.435Z,16.80
2023-01-01T00:25:25.421Z,17.04
2023-01-01T00:27:53.000Z,17.25
2023-01-01T00:30:21.030Z,17.29
2023-01-01T00:32:54.937Z,16.70
2023-01-01T00:35:24.743Z,17.12
2023-01-01T00:37:53.140Z,16.94
2023-01-01T00:40:20.766Z,16.52
2023-01-01T00:42:49.787Z,17.27
2023-01-01T00:45:21.852Z,16.89
2023-01-01T00:47:50.913Z,17.11
2023-01-01T00:50:19.228Z,17.12
2023-01-01T00:52:47.173Z,17.04
2023-01-01T00:55:14.752Z,17.30
2023-01-01T00:57:42.230Z,16.77
2023-01-01T01:00:13.994Z,16.89
2023-01-01T01:02:41.585Z,16.83
2023-01-01T01:05:10.059Z,16.61
2023-01-01T01:07:38.267Z,17.68
2023-01-01T01:10:07.420Z,17.90
2023-01-01T01:12:35.393Z,17.20
2023-01-01T01:15:03.314Z,17.15
2023-01-01T01:17:32.253Z,17.00
2023-01-01T01:19:59.751Z,17.08
2023-01-01T01:22:29.126Z,17.22
2023-01-01T01:24:57.379Z,16.68
2023-01-01T01:27:24.863Z,16.89
2023-01-01T01:29:52.700Z,17.13
2023-01-01T01:32:20.170Z,17.08
2023-01-01T01:34:49.761Z,17.01
2023-01-01T01:37:17.219Z,16.90
2023-01-01T01:39:47.825Z,17.35
2023-01-01T01:42:18.626Z,17.00
2023-01-01T01:44:54.921Z,17.75
2023-01-01T01:47:26.945Z,17.18
2023-01-01T01:50:00.102Z,17.16
2023-01-01T01:52:29.310Z,17.15
2023-01-01T01:54:57.630Z,16.97
2023-01-01T01:57:25.499Z,16.65
2023-01-01T01:59:56.570Z,16.66
2023-01-01T02:02:32.480Z,17.33
2023-01-01T02:05:02.342Z,17.20
2023-01-01T02:07:30.909Z,16.94
2023-01-01T02:09:59.278Z,16.98
2023-01-01T02:12:27.858Z,16.90
2023-01-01T02:14:55.635Z,16.78
2023-01-01T02:17:32.742Z,16.63
2023-01-01T02:20:18.531Z,16.78
2023-01-01T02:23:04.653Z,16.96
2023-01-01T02:25:49.005Z,16.74
2023-01-01T02:28:26.194Z,17.22
2023-01-01T02:30:56.319Z,17.08
2023-01-01T02:33:26.869Z,17.03
2023-01-01T02:35:57.129Z,17.13
2023-01-01T02:38:30.595Z,17.32
2023-01-01T02:41:02.222Z,17.15
2023-01-01T02:43:29.810Z,17.21
2023-01-01T02:45:58.874Z,17.00
2023-01-01T02:48:38.657Z,17.01
2023-01-01T02:51:14.786Z,17.04
2023-01-01T02:53:52.343Z,16.99
2023-01-01T02:56:29.260Z,16.78
2023-01-01T02:59:09.245Z,17.01
2023-01-01T03:01:46.816Z,16.95
2023-01-01T03:04:23.137Z,16.98
2023-01-01T03:06:56.109Z,17.13
2023-01-01T03:09:28.995Z,16.94
2023-01-01T03:12:02.009Z,17.08
2023-01-01T03:14:44.422Z,16.85
2023-01-01T03:17:22.432Z,16.82
2023-01-01T03:19:51.310Z,17.10
2023-01-01T03:22:21.235Z,16.72
2023-01-01T03:24:52.628Z,16.65
2023-01-01T03:27:25.539Z,16.53
2023-01-01T03:29:55.427Z,17.02
2023-01-01T03:32:29.778Z,16.73
2023-01-01T03:34:58.646Z,16.94
2023-01-01T03:37:29.203Z,16.91
2023-01-01T03:39:59.762Z,17.00
2023-01-01T03:42:34.899Z,16.80
2023-01-01T03:45:08.983Z,16.89
2023-01-01T03:47:38.271Z,16.82
2023-01-01T03:50:07.416Z,16.92
2023-01-01T03:52:43.820Z,16.98
2023-01-01T03:55:18.924Z,17.00
2023-01-01T03:57:55.999Z,17.22
2023-01-01T04:00:26.514Z,17.12
2023-01-01T04:02:57.815Z,16.91
2023-01-01T04:05:26.062Z,16.98
2023-01-01T04:07:54.626Z,17.22
2023-01-01T04:10:23.683Z,17.49
2023-01-01T04:12:54.172Z,17.39
2023-01-01T04:15:23.503Z,17.09
2023-01-01T04:17:51.438Z,17.19
2023-01-01T04:20:21.477Z,16.93
2023-01-01T04:22:49.097Z,16.89
2023-01-01T04:25:16.931Z,16.87
2023-01-01T04:27:45.160Z,16.76
2023-01-01T04:30:14.761Z,16.82
2023-01-01T04:32:42.925Z,17.33
2023-01-01T04:35:12.031Z,16.92
2023-01-01T04:37:41.863Z,17.37
2023-01-01T04:40:10.239Z,16.68
2023-01-01T04:42:37.979Z,16.96
2023-01-01T04:45:06.393Z,16.80
2023-01-01T04:47:34.099Z,16.74
2023-01-01T04:50:02.200Z,16.95
2023-01-01T04:52:29.836Z,16.62
2023-01-01T04:54:59.647Z,16.79
2023-01-01T04:57:30.586Z,16.80
2023-01-01T04:59:58.654Z,16.63
2023-01-01T05:02:26.828Z,16.90
2023-01-01T05:04:54.746Z,16.80
2023-01-01T05:07:22.799Z,17.01
2023-01-01T05:09:50.640Z,17.10
2023-01-01T05:12:19.887Z,16.42
2023-01-01T05:14:47.712Z,16.76
2023-01-01T05:17:15.650Z,16.95
2023-01-01T05:19:43.736Z,16.96
2023-01-01T05:22:11.837Z,16.88
2023-01-01T05:24:39.452Z,16.87
2023-01-01T05:27:06.915Z,16.66
2023-01-01T05:29:36.228Z,16.83
2023-01-01T05:32:04.633Z,16.82
2023-01-01T05:36:58.655Z,16.73
2023-01-01T05:39:26.224Z,16.86
2023-01-01T05:41:53.824Z,17.10
2023-01-01T05:44:21.642Z,16.16
2023-01-01T05:46:50.560Z,16.91
2023-01-01T05:49:18.216Z,17.16
2023-01-01T05:51:45.747Z,17.12
2023-01-01T05:56:40.232Z,17.06
2023-01-01T05:59:07.732Z,16.66
2023-01-01T06:01:40.181Z,16.88
2023-01-01T06:04:14.384Z,17.04
2023-01-01T06:06:42.045Z,16.77
2023-01-01T06:09:10.729Z,16.73
2023-01-01T06:11:38.543Z,16.79
2023-01-01T06:14:06.458Z,16.95
2023-01-01T06:16:34.220Z,17.05
2023-01-01T06:19:01.936Z,16.92
2023-01-01T06:21:31.107Z,16.88
2023-01-01T06:24:00.217Z,16.87
2023-01-01T06:26:29.994Z,16.93
2023-01-01T06:28:58.517Z,16.96
2023-01-01T06:31:27.363Z,17.07
2023-01-01T06:33:54.906Z,16.98
2023-01-01T06:36:24.807Z,17.01
2023-01-01T06:38:56.391Z,16.82
2023-01-01T06:41:26.058Z,16.42
2023-01-01T06:43:54.731Z,17.23
2023-01-01T06:46:23.632Z,16.82
2023-01-01T06:48:54.688Z,16.67
2023-01-01T06:51:24.281Z,16.58
2023-01-01T06:53:53.695Z,17.03
2023-01-01T06:56:22.049Z,17.03
2023-01-01T06:58:49.984Z,17.16
2023-01-01T07:01:19.667Z,17.34
2023-01-01T07:03:52.364Z,16.95
2023-01-01T07:06:20.521Z,17.29
2023-01-01T07:08:48.056Z,16.91
2023-01-01T07:11:17.624Z,17.04
2023-01-01T07:13:45.658Z,17.06
2023-01-01T07:16:14.126Z,17.17
2023-01-01T07:18:42.257Z,16.82
2023-01-01T07:21:29.396Z,17.12
2023-01-01T07:23:58.726Z,17.07
2023-01-01T07:26:29.273Z,17.01
2023-01-01T07:29:04.532Z,16.83
2023-01-01T07:31:36.556Z,16.70
2023-01-01T07:34:04.680Z,16.87
2023-01-01T07:36:32.285Z,17.17
2023-01-01T07:39:00.809Z,16.61
2023-01-01T07:41:29.879Z,17.03
2023-01-01T07:43:59.751Z,17.13
2023-01-01T07:46:27.819Z,16.96
2023-01-01T07:48:55.322Z,17.17
2023-01-01T07:51:23.304Z,16.92
2023-01-01T07:53:52.083Z,17.24
2023-01-01T07:56:19.870Z,16.94
2023-01-01T07:58:49.311Z,17.17
2023-01-01T08:01:17.623Z,17.21
2023-01-01T08:03:45.626Z,17.12
2023-01-01T08:06:14.059Z,16.92
2023-01-01T08:08:41.682Z,17.16
2023-01-01T08:11:09.398Z,16.93
2023-01-01T08:13:37.212Z,17.04
2023-01-01T08:16:08.197Z,16.87
2023-01-01T08:18:35.742Z,17.33
2023-01-01T08:21:03.714Z,17.13
2023-01-01T08:23:31.155Z,16.88
2023-01-01T08:26:02.911Z,16.95
2023-01-01T08:28:31.565Z,16.73
2023-01-01T08:30:59.704Z,16.73
2023-01-01T08:33:31.232Z,16.74
2023-01-01T08:35:59.031Z,17.10
2023-01-01T08:38:26.735Z,16.82
2023-01-01T08:40:54.153Z,17.04
2023-01-01T08:43:21.651Z,17.30
2023-01-01T08:45:50.731Z,16.77
2023-01-01T08:48:18.147Z,16.98
2023-01-01T08:50:53.115Z,17.03
2023-01-01T08:53:21.045Z,16.57
2023-01-01T08:55:56.400Z,16.87
2023-01-01T08:58:24.015Z,17.25
2023-01-01T09:00:52.555Z,17.04
2023-01-01T09:03:20.901Z,16.82
2023-01-01T09:05:50.291Z,17.10
2023-01-01T09:08:18.156Z,17.05
2023-01-01T09:10:45.762Z,17.06
2023-01-01T09:13:15.149Z,17.01
2023-01-01T09:15:42.901Z,16.67
2023-01-01T09:18:11.100Z,16.94
2023-01-01T09:20:38.626Z,17.10
2023-01-01T09:23:09.356Z,16.80
2023-01-01T09:25:37.371Z,17.30
2023-01-01T09:28:07.236Z,17.29
2023-01-01T09:30:35.389Z,17.12
2023-01-01T09:33:03.207Z,17.02
2023-01-01T09:35:31.157Z,17.30
2023-01-01T09:37:58.704Z,16.86
2023-01-01T09:40:35.564Z,17.03
2023-01-01T09:43:14.861Z,16.90
2023-01-01T09:45:55.256Z,17.12
2023-01-01T09:48:26.344Z,17.24
2023-01-01T09:50:54.377Z,16.82
2023-01-01T09:53:26.692Z,17.68
2023-01-01T09:55:58.501Z,17.19
2023-01-01T09:58:28.882Z,16.81
2023-01-01T10:01:03.148Z,17.14
2023-01-01T10:03:38.410Z,16.98
2023-01-01T10:06:15.785Z,17.21
2023-01-01T10:08:56.904Z,17.20
2023-01-01T10:11:32.273Z,17.55
2023-01-01T10:14:02.013Z,17.16
2023-01-01T10:16:32.984Z,17.19
2023-01-01T10:19:07.036Z,17.34
2023-01-01T10:21:42.128Z,17.25
2023-01-01T10:24:35.327Z,17.29
2023-01-01T10:27:05.992Z,17.40
2023-01-01T10:29:41.164Z,16.99
2023-01-01T10:32:19.194Z,16.61
2023-01-01T10:34:48.497Z,17.37
2023-01-01T10:37:16.257Z,17.23
2023-01-01T10:39:46.335Z,17.20
2023-01-01T10:42:15.853Z,17.41
2023-01-01T10:44:43.805Z,17.43
2023-01-01T10:47:24.971Z,17.38
2023-01-01T10:49:55.589Z,17.36
2023-01-01T10:52:27.972Z,17.58
2023-01-01T10:54:55.758Z,17.19
2023-01-01T10:57:32.575Z,17.18
2023-01-01T11:00:22.828Z,17.11
2023-01-01T11:03:14.853Z,17.16
2023-01-01T11:06:01.715Z,17.42
2023-01-01T11:08:31.435Z,17.30
2023-01-01T11:10:59.847Z,17.34
2023-01-01T11:13:30.408Z,17.13
2023-01-01T11:15:58.274Z,17.37
2023-01-01T11:18:29.267Z,17.22
2023-01-01T11:20:58.455Z,17.42
2023-01-01T11:23:31.468Z,17.36
2023-01-01T11:26:04.207Z,17.27
2023-01-01T11:28:34.855Z,17.53
2023-01-01T11:31:14.369Z,17.08
2023-01-01T11:33:47.299Z,17.54
2023-01-01T11:36:22.319Z,17.64
2023-01-01T11:39:03.132Z,18.07
2023-01-01T11:41:43.879Z,17.68
2023-01-01T11:44:22.914Z,17.67
2023-01-01T11:46:50.868Z,17.83
2023-01-01T11:49:23.989Z,17.62
2023-01-01T11:51:51.778Z,17.56
2023-01-01T11:54:25.808Z,17.70
2023-01-01T11:56:56.954Z,17.99
2023-01-01T11:59:29.432Z,17.62
2023-01-01T12:02:02.504Z,17.84
2023-01-01T12:04:38.085Z,17.77
2023-01-01T12:07:08.712Z,17.64
2023-01-01T12:09:42.547Z,17.41
2023-01-01T12:12:15.941Z,17.59
2023-01-01T12:14:50.084Z,17.73
2023-01-01T12:17:23.458Z,17.75
2023-01-01T12:20:00.844Z,17.47
2023-01-01T12:22:28.576Z,17.62
2023-01-01T12:24:58.255Z,17.18
2023-01-01T12:27:41.351Z,17.62
2023-01-01T12:30:20.850Z,17.48
2023-01-01T12:33:08.623Z,17.49
2023-01-01T12:36:01.653Z,17.41
2023-01-01T12:38:46.220Z,17.34
2023-01-01T12:41:27.676Z,17.58
2023-01-01T12:44:04.146Z,17.69
2023-01-01T12:46:50.076Z,17.67
2023-01-01T12:49:46.744Z,17.64
2023-01-01T12:52:25.041Z,17.29
2023-01-01T12:55:32.610Z,17.66
2023-01-01T12:58:06.639Z,17.52
2023-01-01T13:00:37.613Z,17.59
2023-01-01T13:03:15.669Z,17.23
2023-01-01T13:05:47.088Z,17.38
2023-01-01T13:08:14.667Z,17.45
2023-01-01T13:10:44.683Z,17.47
2023-01-01T13:13:13.085Z,17.55
2023-01-01T13:15:52.687Z,17.09
2023-01-01T13:18:33.131Z,17.30
2023-01-01T13:21:04.081Z,17.44
2023-01-01T13:23:51.158Z,17.41
2023-01-01T13:26:45.400Z,17.40
2023-01-01T13:29:35.218Z,17.25
2023-01-01T13:32:09.987Z,17.24
2023-01-01T13:35:01.269Z,17.24
2023-01-01T13:37:42.863Z,17.37
2023-01-01T13:40:42.721Z,17.10
2023-01-01T13:43:26.805Z,17.60
2023-01-01T13:46:11.497Z,17.35
2023-01-01T13:49:02.134Z,17.17
2023-01-01T13:52:05.938Z,17.42
2023-01-01T13:55:29.145Z,17.65
2023-01-01T13:58:24.452Z,17.53
2023-01-01T14:01:33.887Z,17.32
2023-01-01T14:04:06.185Z,17.57
2023-01-01T14:06:39.390Z,17.47
2023-01-01T14:09:13.128Z,17.36
2023-01-01T14:11:41.064Z,17.39
2023-01-01T14:14:19.169Z,17.44
2023-01-01T14:16:46.761Z,17.60
2023-01-01T14:19:16.382Z,17.38
2023-01-01T14:21:45.684Z,17.59
2023-01-01T14:24:18.149Z,17.32
2023-01-01T14:26:46.631Z,17.25
2023-01-01T14:29:20.029Z,17.22
2023-01-01T14:31:48.183Z,17.52
2023-01-01T14:34:16.965Z,17.58
2023-01-01T14:36:52.055Z,17.33
2023-01-01T14:39:27.932Z,17.25
2023-01-01T14:42:00.052Z,17.62
2023-01-01T14:44:33.279Z,17.60
2023-01-01T14:47:02.182Z,17.51
2023-01-01T14:49:32.947Z,17.38
2023-01-01T14:52:07.224Z,17.24
2023-01-01T14:54:38.700Z,17.42
2023-01-01T14:57:10.820Z,17.78
2023-01-01T14:59:46.531Z,17.36
2023-01-01T15:02:17.179Z,17.31
2023-01-01T15:04:44.929Z,17.63
2023-01-01T15:07:21.663Z,17.57
2023-01-01T15:09:51.975Z,17.01
2023-01-01T15:12:19.911Z,17.35
2023-01-01T15:14:48.826Z,17.28
2023-01-01T15:17:17.766Z,17.14
2023-01-01T15:19:47.006Z,17.49
2023-01-01T15:22:22.840Z,17.30
2023-01-01T15:24:55.331Z,17.56
2023-01-01T15:27:25.580Z,17.44
2023-01-01T15:29:53.731Z,17.91
2023-01-01T15:32:26.618Z,17.75
2023-01-01T15:34:56.203Z,17.80
2023-01-01T15:37:31.553Z,17.58
2023-01-01T15:40:02.860Z,17.68
2023-01-01T15:42:35.369Z,17.19
2023-01-01T15:45:27.359Z,17.38
2023-01-01T15:47:57.356Z,17.74
2023-01-01T15:50:26.570Z,17.51
2023-01-01T15:52:56.891Z,17.61
2023-01-01T15:55:27.968Z,17.31
2023-01-01T15:57:56.218Z,17.57
2023-01-01T16:00:26.388Z,17.29
2023-01-01T16:02:57.059Z,17.59
2023-01-01T16:05:26.288Z,17.62
2023-01-01T16:08:01.193Z,17.71
2023-01-01T16:10:30.572Z,17.92
2023-01-01T16:12:57.985Z,17.44
2023-01-01T16:15:26.525Z,17.48
2023-01-01T16:17:54.387Z,17.64
2023-01-01T16:20:21.993Z,17.71
2023-01-01T16:22:49.453Z,17.57
2023-01-01T16:25:19.404Z,17.44
2023-01-01T16:27:48.661Z,17.37
2023-01-01T16:30:16.609Z,17.57
2023-01-01T16:32:45.509Z,17.52
2023-01-01T16:35:13.942Z,17.33
2023-01-01T16:37:41.391Z,17.69
2023-01-01T16:40:09.855Z,17.89
2023-01-01T16:42:37.303Z,17.75
2023-01-01T16:45:07.547Z,17.85
2023-01-01T16:47:35.094Z,17.69
2023-01-01T16:50:02.552Z,17.84
2023-01-01T16:52:33.526Z,17.88
2023-01-01T16:55:01.468Z,17.58
2023-01-01T16:57:28.990Z,18.06
2023-01-01T16:59:56.850Z,17.86
2023-01-01T17:02:25.881Z,17.58
2023-01-01T17:04:53.936Z,17.69
2023-01-01T17:07:21.512Z,17.76
2023-01-01T17:09:48.983Z,17.70
2023-01-01T17:12:16.573Z,17.82
2023-01-01T17:14:44.155Z,17.69
2023-01-01T17:17:12.245Z,17.46
2023-01-01T17:19:41.505Z,17.22
2023-01-01T17:22:08.976Z,17.47
2023-01-01T17:24:36.459Z,17.78
2023-01-01T17:27:04.059Z,17.47
2023-01-01T17:29:31.509Z,17.60
2023-01-01T17:31:58.959Z,17.61
2023-01-01T17:34:27.525Z,17.67
2023-01-01T17:36:56.458Z,17.65
2023-01-01T17:39:23.945Z,17.81
2023-01-01T17:41:52.235Z,17.67
2023-01-01T17:44:19.688Z,17.83
2023-01-01T17:46:47.301Z,17.94
2023-01-01T17:49:15.373Z,18.01
2023-01-01T17:51:42.851Z,18.02
2023-01-01T17:54:11.757Z,18.08
2023-01-01T17:56:39.212Z,17.70
2023-01-01T17:59:07.165Z,17.66
2023-01-01T18:01:35.067Z,17.89
2023-01-01T18:04:04.543Z,17.54
2023-01-01T18:06:40.270Z,17.82
2023-01-01T18:09:13.458Z,18.05
2023-01-01T18:11:41.787Z,17.30
2023-01-01T18:14:10.106Z,17.32
2023-01-01T18:16:39.467Z,17.52
2023-01-01T18:19:08.038Z,17.97
2023-01-01T18:21:35.649Z,17.79
2023-01-01T18:24:03.080Z,17.70
2023-01-01T18:26:32.419Z,17.78
2023-01-01T18:29:01.238Z,18.04
2023-01-01T18:31:30.997Z,17.71
2023-01-01T18:33:58.877Z,17.92
2023-01-01T18:36:28.850Z,17.90
2023-01-01T18:38:57.789Z,17.93
2023-01-01T18:41:39.953Z,17.71
2023-01-01T18:44:17.499Z,17.93
2023-01-01T18:46:45.852Z,17.89
2023-01-01T18:49:13.512Z,17.65
2023-01-01T18:51:40.957Z,17.75
2023-01-01T18:54:12.415Z,17.56
2023-01-01T18:56:41.567Z,17.88
2023-01-01T18:59:20.787Z,17.93
2023-01-01T19:01:48.902Z,17.71
2023-01-01T19:04:16.494Z,18.12
2023-01-01T19:06:43.918Z,18.00
2023-01-01T19:09:18.984Z,17.68
2023-01-01T19:11:50.035Z,17.84
2023-01-01T19:14:19.457Z,17.61
2023-01-01T19:16:48.557Z,17.95
2023-01-01T19:19:18.521Z,17.82
2023-01-01T19:21:51.473Z,18.13
2023-01-01T19:24:22.826Z,17.91
2023-01-01T19:26:56.179Z,17.75
2023-01-01T19:29:25.068Z,17.94
2023-01-01T19:31:54.839Z,17.93
2023-01-01T19:34:23.961Z,17.73
2023-01-01T19:36:52.101Z,18.05
2023-01-01T19:39:19.800Z,17.91
2023-01-01T19:41:47.303Z,17.77
2023-01-01T19:44:21.433Z,18.15
2023-01-01T19:46:52.254Z,18.10
2023-01-01T19:49:20.267Z,18.33
2023-01-01T19:51:47.852Z,18.04
2023-01-01T19:54:15.575Z,17.88
2023-01-01T19:56:42.972Z,18.06
2023-01-01T19:59:10.418Z,17.89
2023-01-01T20:01:39.610Z,17.73
2023-01-01T20:04:07.630Z,17.82
2023-01-01T20:06:35.246Z,17.83
2023-01-01T20:09:02.711Z,18.01
2023-01-01T20:11:30.554Z,18.37
2023-01-01T20:13:58.066Z,17.93
2023-01-01T20:16:25.547Z,18.35
2023-01-01T20:18:54.522Z,17.82
2023-01-01T20:21:25.869Z,17.93
2023-01-01T20:23:54.066Z,18.29
2023-01-01T20:26:21.516Z,18.00
2023-01-01T20:28:48.918Z,18.25
2023-01-01T20:31:16.408Z,18.34
2023-01-01T20:33:43.855Z,18.22
2023-01-01T20:36:12.731Z,18.05
2023-01-01T20:38:40.619Z,17.86
2023-01-01T20:41:08.148Z,18.19
2023-01-01T20:43:35.587Z,18.44
2023-01-01T20:46:03.106Z,18.04
2023-01-01T20:48:30.842Z,18.22
2023-01-01T20:50:58.431Z,18.34
2023-01-01T20:53:27.337Z,18.28
2023-01-01T20:55:54.759Z,18.57
2023-01-01T20:58:22.330Z,18.29
2023-01-01T21:00:49.800Z,18.38
2023-01-01T21:03:17.234Z,18.43
2023-01-01T21:05:44.737Z,18.27
2023-01-01T21:08:12.193Z,18.40
2023-01-01T21:10:41.099Z,18.42
2023-01-01T21:13:08.611Z,18.17
2023-01-01T21:15:36.086Z,18.47
2023-01-01T21:18:05.022Z,18.52
2023-01-01T21:20:36.993Z,18.38
2023-01-01T21:23:10.760Z,18.21
2023-01-01T21:25:51.142Z,18.12
2023-01-01T21:28:21.553Z,18.24
2023-01-01T21:30:51.810Z,17.99
2023-01-01T21:33:25.947Z,18.48
2023-01-01T21:35:53.536Z,18.42
2023-01-01T21:38:25.097Z,18.14
2023-01-01T21:40:53.798Z,18.37
2023-01-01T21:43:34.275Z,18.21
2023-01-01T21:46:30.704Z,18.21
2023-01-01T21:49:00.717Z,18.35
2023-01-01T21:51:30.748Z,19.31
2023-01-01T21:54:24.868Z,18.43
2023-01-01T21:56:56.317Z,18.50
2023-01-01T21:59:33.755Z,18.42
2023-01-01T22:02:37.000Z,18.10
2023-01-01T22:05:30.167Z,18.44
2023-01-01T22:07:58.780Z,18.36
2023-01-01T22:10:33.010Z,18.49
2023-01-01T22:13:01.246Z,18.39
2023-01-01T22:15:38.276Z,18.49
2023-01-01T22:18:20.515Z,18.26
2023-01-01T22:20:49.342Z,18.70
2023-01-01T22:23:39.391Z,18.45
2023-01-01T22:26:17.036Z,18.18
2023-01-01T22:28:47.353Z,18.02
2023-01-01T22:31:23.672Z,18.46
2023-01-01T22:33:52.855Z,18.72
2023-01-01T22:36:24.592Z,18.30
2023-01-01T22:38:55.345Z,18.41
2023-01-01T22:41:22.922Z,18.66
2023-01-01T22:43:57.052Z,18.63
2023-01-01T22:46:29.817Z,18.56
2023-01-01T22:49:00.404Z,18.47
2023-01-01T22:51:38.037Z,18.41
2023-01-01T22:54:05.716Z,18.20
2023-01-01T22:56:33.144Z,18.51
2023-01-01T22:59:00.565Z,18.56
2023-01-01T23:01:29.591Z,18.50
2023-01-01T23:03:57.602Z,18.49
2023-01-01T23:06:25.423Z,18.43
2023-01-01T23:08:53.908Z,18.59
2023-01-01T23:11:22.712Z,18.56
2023-01-01T23:13:51.817Z,18.68
2023-01-01T23:16:19.273Z,18.39
2023-01-01T23:18:48.193Z,18.33
2023-01-01T23:21:24.375Z,18.54
2023-01-01T23:23:56.233Z,18.47
2023-01-01T23:26:24.369Z,18.59
2023-01-01T23:28:53.376Z,18.38
2023-01-01T23:31:25.278Z,18.45
2023-01-01T23:33:56.205Z,18.44
2023-01-01T23:36:24.244Z,18.58
2023-01-01T23:38:51.781Z,18.87
2023-01-01T23:41:19.233Z,18.94
2023-01-01T23:43:46.674Z,18.53
2023-01-01T23:46:14.804Z,18.56
2023-01-01T23:48:44.051Z,18.56
2023-01-01T23:51:14.208Z,18.75
2023-01-01T23:53:41.628Z,18.87
2023-01-01T23:56:09.092Z,18.55
2023-01-01T23:58:36.564Z,18.55
